Time;durP1;ratioP1;P1;durP2;ratioP2;P2;SDS_P1;SDS_P2;PMS_P1;PMS_P2;Temp;Humidity;BMP_temperature;BMP_pressure;BME280_temperature;BME280_humidity;BME280_pressure;Samples;Min_cycle;Max_cycle;Signal;HPM_P1;HPM_P2
2022/11/20 00:01:44;;;;;;;23.97;16.20;;;5.10;99.90;;;;;;6217021;23;20174;-84
2022/11/20 00:04:11;;;;;;;20.83;15.30;;;5.10;99.90;;;;;;6217579;23;20164;-84
2022/11/20 00:06:37;;;;;;;22.05;15.02;;;5.00;99.90;;;;;;6190775;23;20161;-83
2022/11/20 00:09:05;;;;;;;23.90;14.43;;;5.00;99.90;;;;;;6219031;23;20157;-85
2022/11/20 00:11:31;;;;;;;18.73;13.85;;;5.00;99.90;;;;;;6217210;23;20500;-84
2022/11/20 00:13:59;;;;;;;20.27;13.60;;;5.10;1.00;;;;;;6216628;23;20256;-83
2022/11/20 00:16:27;;;;;;;22.10;14.15;;;5.10;1.00;;;;;;6217292;23;20845;-84
2022/11/20 00:18:53;;;;;;;23.40;15.10;;;5.20;1.00;;;;;;6215360;23;20150;-83
2022/11/20 00:21:21;;;;;;;22.20;15.23;;;5.20;1.00;;;;;;6216994;23;20181;-83
2022/11/20 00:23:49;;;;;;;22.73;15.45;;;5.20;1.00;;;;;;6190543;23;20154;-83
2022/11/20 00:26:17;;;;;;;21.65;15.48;;;5.20;1.00;;;;;;6217862;23;20177;-83
2022/11/20 00:28:44;;;;;;;19.45;13.63;;;5.20;1.00;;;;;;6190527;23;20165;-83
2022/11/20 00:31:15;;;;;;;22.80;13.82;;;5.30;1.00;;;;;;6219080;23;20173;-83
2022/11/20 00:33:41;;;;;;;20.67;14.65;;;5.30;1.00;;;;;;6217568;23;20169;-84
2022/11/20 00:36:13;;;;;;;23.42;16.35;;;5.30;1.00;;;;;;6218763;23;20154;-84
2022/11/20 00:38:38;;;;;;;23.35;14.95;;;5.30;1.00;;;;;;6189376;23;20531;-83
2022/11/20 00:41:07;;;;;;;23.27;15.33;;;5.30;1.00;;;;;;6217782;23;20197;-84
2022/11/20 00:43:33;;;;;;;23.58;15.27;;;5.30;1.00;;;;;;6191341;23;20184;-84
2022/11/20 00:46:08;;;;;;;21.70;15.13;;;5.30;1.00;;;;;;6216508;23;20158;-83
2022/11/20 00:48:34;;;;;;;21.05;14.85;;;5.30;1.00;;;;;;6218288;23;20364;-85
2022/11/20 00:51:00;;;;;;;22.80;15.37;;;5.30;1.00;;;;;;6216959;23;20177;-83
2022/11/20 00:53:26;;;;;;;20.87;14.23;;;5.30;1.00;;;;;;6217177;23;20169;-84
2022/11/20 00:56:10;;;;;;;23.75;15.20;;;5.30;1.00;;;;;;6217003;23;20706;-83
2022/11/20 00:58:37;;;;;;;23.70;15.50;;;5.30;99.90;;;;;;6221120;23;20181;-85
2022/11/20 01:01:12;;;;;;;22.48;15.07;;;5.30;99.90;;;;;;6195387;23;20177;-84
2022/11/20 01:03:49;;;;;;;21.02;14.40;;;5.30;99.90;;;;;;6222244;23;20138;-85
2022/11/20 01:06:43;;;;;;;20.88;15.10;;;5.30;99.90;;;;;;6220864;23;20221;-85
2022/11/20 01:09:12;;;;;;;27.67;14.75;;;5.20;99.90;;;;;;6216304;23;20548;-83
2022/11/20 01:11:40;;;;;;;22.23;16.40;;;5.20;99.90;;;;;;6220343;23;20181;-85
2022/11/20 01:14:10;;;;;;;22.10;15.77;;;5.10;99.90;;;;;;6195198;23;20248;-84
2022/11/20 01:16:50;;;;;;;26.10;15.80;;;5.20;1.00;;;;;;6222606;23;20154;-86
2022/11/20 01:19:19;;;;;;;24.52;15.57;;;5.20;1.00;;;;;;6222542;23;20265;-86
2022/11/20 01:21:46;;;;;;;22.58;16.05;;;5.20;1.00;;;;;;6193031;23;20193;-84
2022/11/20 01:24:14;;;;;;;21.70;14.27;;;5.20;1.00;;;;;;6223391;23;20205;-85
2022/11/20 01:26:41;;;;;;;22.45;15.98;;;5.20;1.00;;;;;;6221112;23;20154;-84
2022/11/20 01:29:10;;;;;;;22.35;14.95;;;5.20;99.90;;;;;;6221514;23;20161;-83
2022/11/20 01:31:39;;;;;;;22.85;15.13;;;5.10;99.90;;;;;;6222218;23;20543;-85
2022/11/20 01:34:09;;;;;;;23.10;15.20;;;5.10;1.00;;;;;;6222455;23;20181;-86
2022/11/20 01:36:37;;;;;;;21.10;15.40;;;5.10;1.00;;;;;;6196008;23;20142;-85
2022/11/20 01:39:15;;;;;;;28.52;17.25;;;5.00;1.00;;;;;;6195349;23;20245;-87
2022/11/20 01:44:53;;;;;;;22.67;15.63;;;5.00;1.00;;;;;;6199304;23;20188;-84
2022/11/20 01:47:39;;;;;;;22.25;14.95;;;5.10;99.90;;;;;;6222859;23;20150;-84
2022/11/20 01:50:14;;;;;;;21.27;15.40;;;5.10;99.90;;;;;;6222424;23;20185;-85
2022/11/20 02:34:09;;;;;;;23.65;16.15;;;4.10;99.90;;;;;;5042184;28;20908;-84
2022/11/20 02:36:38;;;;;;;24.58;15.48;;;4.20;80.00;;;;;;5049259;28;20224;-84
2022/11/20 02:39:04;;;;;;;23.48;14.75;;;4.30;99.90;;;;;;5053231;28;20198;-84
2022/11/20 02:41:37;;;;;;;24.10;16.00;;;4.40;1.00;;;;;;5048068;28;20202;-82
2022/11/20 02:44:04;;;;;;;21.88;15.80;;;4.50;1.00;;;;;;5060345;28;20413;-85
2022/11/20 02:46:30;;;;;;;26.58;16.55;;;4.70;66.20;;;;;;5061007;28;20169;-87
2022/11/20 02:48:56;;;;;;;23.13;16.67;;;4.80;1.00;;;;;;5058291;28;20194;-84
2022/11/20 02:51:24;;;;;;;22.57;15.17;;;4.90;1.00;;;;;;5042453;28;20252;-84
2022/11/20 02:53:50;;;;;;;26.88;17.27;;;5.00;1.00;;;;;;5039626;28;20194;-84
2022/11/20 02:56:16;;;;;;;23.30;15.93;;;5.00;1.00;;;;;;5045552;28;20653;-84
2022/11/20 02:58:41;;;;;;;21.50;14.70;;;5.10;99.90;;;;;;5045425;28;20444;-84
2022/11/20 03:01:07;;;;;;;21.80;14.93;;;5.10;99.90;;;;;;5051309;28;20210;-83
2022/11/20 03:03:35;;;;;;;23.63;15.70;;;5.10;99.90;;;;;;5054313;28;20182;-84
2022/11/20 03:06:00;;;;;;;24.50;16.20;;;5.20;99.90;;;;;;5038350;28;20192;-84
2022/11/20 03:08:26;;;;;;;25.80;16.83;;;5.10;99.90;;;;;;5041100;28;20185;-84
2022/11/20 03:10:51;;;;;;;27.10;17.67;;;5.10;99.90;;;;;;5046219;28;20732;-84
2022/11/20 03:13:17;;;;;;;28.20;17.07;;;5.10;99.90;;;;;;5048298;28;20237;-83
2022/11/20 03:15:42;;;;;;;27.53;16.60;;;5.10;99.90;;;;;;5034672;28;20190;-84
2022/11/20 03:18:08;;;;;;;23.93;15.20;;;5.20;1.00;;;;;;5043328;28;20190;-83
2022/11/20 03:20:33;;;;;;;25.20;17.73;;;5.20;1.00;;;;;;5041014;28;20209;-85
2022/11/20 03:22:59;;;;;;;24.27;16.23;;;5.20;1.00;;;;;;5040785;28;20183;-84
2022/11/20 03:25:25;;;;;;;25.97;17.57;;;5.30;1.00;;;;;;5051054;28;20562;-84
2022/11/20 03:27:51;;;;;;;26.30;15.30;;;5.40;1.00;;;;;;5040462;28;20444;-84
2022/11/20 03:30:16;;;;;;;24.13;16.57;;;5.40;99.90;;;;;;5040353;28;20284;-84
2022/11/20 03:32:42;;;;;;;25.80;15.70;;;5.50;99.90;;;;;;5049632;28;20209;-84
2022/11/20 03:35:08;;;;;;;23.80;16.33;;;5.50;99.90;;;;;;5049212;28;20181;-84
2022/11/20 03:37:33;;;;;;;25.27;17.45;;;5.50;99.90;;;;;;5046967;28;20181;-84
2022/11/20 03:39:59;;;;;;;26.07;15.80;;;5.50;99.90;;;;;;5036684;28;20186;-84
2022/11/20 03:45:09;;;;;;;24.40;15.68;;;5.60;99.90;;;;;;5030445;28;20251;-84
2022/11/20 03:47:34;;;;;;;28.83;15.87;;;5.60;99.90;;;;;;5039149;28;20194;-83
2022/11/20 03:50:00;;;;;;;20.10;14.00;;;5.60;99.90;;;;;;5029606;28;20569;-84
2022/11/20 03:52:25;;;;;;;27.70;16.80;;;5.60;99.90;;;;;;5027396;28;20202;-85
2022/11/20 03:54:51;;;;;;;23.80;15.90;;;5.60;99.90;;;;;;5032510;28;20178;-84
2022/11/20 03:57:16;;;;;;;24.03;16.63;;;5.70;99.90;;;;;;5032348;28;20252;-83
2022/11/20 03:59:42;;;;;;;23.47;15.90;;;5.70;85.00;;;;;;5030097;28;20179;-85
2022/11/20 04:02:07;;;;;;;28.03;16.63;;;5.70;1.00;;;;;;5031930;28;20248;-84
2022/11/20 04:04:33;;;;;;;21.80;14.90;;;5.70;12.10;;;;;;5026085;28;20202;-82
2022/11/20 04:06:58;;;;;;;24.50;16.07;;;5.80;1.00;;;;;;5036372;28;20215;-86
2022/11/20 04:09:24;;;;;;;27.17;16.07;;;5.70;1.00;;;;;;5037718;28;20216;-84
2022/11/20 04:11:49;;;;;;;27.70;15.97;;;5.80;1.00;;;;;;5029734;28;20214;-85
2022/11/20 04:14:15;;;;;;;25.23;16.63;;;5.80;1.00;;;;;;5026647;28;20585;-85
2022/11/20 04:16:44;;;;;;;23.20;17.10;;;5.80;1.00;;;;;;5028040;28;20183;-84
2022/11/20 04:19:16;;;;;;;23.52;14.60;;;5.80;1.00;;;;;;5037688;28;20242;-84
2022/11/20 04:21:43;;;;;;;24.17;15.52;;;5.80;1.00;;;;;;5024729;28;20198;-84
2022/11/20 04:24:10;;;;;;;20.80;14.85;;;5.80;1.00;;;;;;5025690;28;20213;-84
2022/11/20 04:26:36;;;;;;;24.00;16.25;;;5.90;1.00;;;;;;5028839;28;21564;-84
2022/11/20 04:29:02;;;;;;;22.08;14.45;;;5.90;99.90;;;;;;5035744;28;20186;-83
2022/11/20 04:31:30;;;;;;;24.48;15.75;;;5.80;99.90;;;;;;5037599;28;20214;-83
2022/11/20 04:33:59;;;;;;;24.40;16.15;;;5.80;99.90;;;;;;5046976;28;20213;-85
2022/11/20 04:36:28;;;;;;;22.58;15.65;;;5.80;57.50;;;;;;5031404;28;20540;-84
2022/11/20 04:39:01;;;;;;;21.85;15.52;;;5.80;1.00;;;;;;5034799;28;20182;-84
2022/11/20 04:41:29;;;;;;;21.88;15.32;;;5.80;1.00;;;;;;5031704;28;20206;-84
2022/11/20 04:43:59;;;;;;;20.77;14.68;;;5.70;1.00;;;;;;5038588;28;20189;-84
2022/11/20 04:46:25;;;;;;;24.75;16.85;;;5.70;1.00;;;;;;5023785;28;20190;-84
2022/11/20 04:48:51;;;;;;;27.60;17.75;;;5.70;99.90;;;;;;5032786;28;20554;-84
2022/11/20 04:51:16;;;;;;;24.20;14.70;;;5.70;1.00;;;;;;5033803;28;20277;-83
2022/11/20 04:53:42;;;;;;;24.40;16.43;;;5.70;1.00;;;;;;5035715;28;20201;-83
2022/11/20 04:56:10;;;;;;;22.37;16.03;;;5.70;99.90;;;;;;5038362;28;20178;-85
2022/11/20 04:58:36;;;;;;;23.42;16.23;;;5.70;99.90;;;;;;5023441;28;20206;-84
2022/11/20 05:01:16;;;;;;;25.73;17.30;;;5.70;99.90;;;;;;5029748;28;20262;-84
2022/11/20 05:03:43;;;;;;;23.00;16.17;;;5.60;99.90;;;;;;5033819;28;20645;-83
2022/11/20 05:06:10;;;;;;;22.23;16.58;;;5.60;99.90;;;;;;5039660;28;20210;-85
2022/11/20 05:08:36;;;;;;;21.90;16.33;;;5.60;99.90;;;;;;5027948;28;20179;-84
2022/11/20 05:11:08;;;;;;;24.00;15.57;;;5.60;34.00;;;;;;5023895;28;20206;-84
2022/11/20 05:13:34;;;;;;;23.08;16.55;;;5.60;1.00;;;;;;5033208;28;20837;-84
2022/11/20 05:16:12;;;;;;;22.73;16.38;;;5.60;1.00;;;;;;5031977;28;20717;-85
2022/11/20 05:18:38;;;;;;;28.75;16.63;;;5.50;99.90;;;;;;5020127;28;20187;-83
2022/11/20 05:21:04;;;;;;;24.42;17.25;;;5.40;99.90;;;;;;5031704;28;20198;-83
2022/11/20 05:23:31;;;;;;;26.10;18.30;;;5.30;32.20;;;;;;5030753;28;20657;-85
2022/11/20 05:25:58;;;;;;;23.42;17.00;;;5.20;99.90;;;;;;5035325;28;20193;-84
2022/11/20 05:28:24;;;;;;;22.30;16.35;;;5.20;99.90;;;;;;5022119;28;20670;-85
2022/11/20 05:30:50;;;;;;;25.02;16.35;;;5.20;99.90;;;;;;5028259;28;20241;-83
2022/11/20 05:33:16;;;;;;;26.87;17.30;;;5.10;1.00;;;;;;5030437;28;20202;-84
2022/11/20 05:35:41;;;;;;;20.27;15.13;;;5.00;97.10;;;;;;5031668;28;20201;-84
2022/11/20 05:38:07;;;;;;;25.50;16.87;;;5.10;99.90;;;;;;5033169;28;20178;-84
2022/11/20 05:40:32;;;;;;;22.60;17.37;;;5.10;99.90;;;;;;5029361;28;20207;-84
2022/11/20 05:42:59;;;;;;;21.60;15.60;;;5.10;99.90;;;;;;5032445;28;20190;-84
2022/11/20 05:45:24;;;;;;;23.27;17.65;;;5.10;99.90;;;;;;5022433;28;20612;-85
2022/11/20 05:47:50;;;;;;;25.43;17.33;;;5.00;99.90;;;;;;5035920;28;20225;-84
2022/11/20 05:50:15;;;;;;;25.10;17.47;;;5.00;99.90;;;;;;5034206;28;20337;-83
2022/11/20 05:52:41;;;;;;;26.80;18.13;;;4.90;99.90;;;;;;5024480;28;20208;-84
2022/11/20 05:55:07;;;;;;;26.60;16.73;;;4.90;1.00;;;;;;5029973;28;20189;-83
2022/11/20 05:57:33;;;;;;;26.45;16.85;;;4.80;1.00;;;;;;5029091;28;20550;-84
2022/11/20 05:59:58;;;;;;;25.50;16.80;;;4.90;99.90;;;;;;5034647;28;20183;-85
2022/11/20 06:06:49;;;;;;;;;;;;;;;;;;;;;
2022/11/20 06:09:24;;;;;;;28.95;17.67;;;5.00;99.90;;;;;;4936107;29;20308;-84
2022/11/20 06:15:29;;;;;;;22.83;14.18;;;5.00;99.90;;;;;;4946878;29;20197;-82
2022/11/20 06:24:22;;;;;;;23.65;16.88;;;5.20;28.70;;;;;;5099115;22;20246;-83
2022/11/20 06:40:45;;;;;;;20.20;15.30;;;5.40;1.00;;;;;;4890141;29;20230;-83
2022/11/20 07:06:04;;;;;;;27.25;18.80;;;5.40;1.00;;;;;;4980142;28;20216;-82
2022/11/20 07:12:08;;;;;;;28.67;17.52;;;5.60;1.00;;;;;;4998033;28;20218;-83
2022/11/20 07:14:50;;;;;;;28.90;19.05;;;5.70;1.00;;;;;;4980671;28;20200;-83
2022/11/20 07:17:48;;;;;;;42.60;20.08;;;5.70;1.00;;;;;;4964677;29;20208;-84
2022/11/20 07:20:41;;;;;;;;;;;;;;;;;;;;;
2022/11/20 07:23:25;;;;;;;;;;;;;;;;;;;;;
2022/11/20 07:25:51;;;;;;;35.40;19.23;;;5.70;99.90;;;;;;4985804;28;20207;-83
2022/11/20 07:29:12;;;;;;;27.67;17.40;;;5.70;99.90;;;;;;4980671;28;20193;-82
2022/11/20 07:31:59;;;;;;;;;;;;;;;;;;;;;
2022/11/20 07:46:58;;;;;;;46.63;21.48;;;5.80;99.90;;;;;;4922257;29;20251;-84
2022/11/20 07:49:02;;;;;;;57.50;22.00;;;5.80;99.90;;;;;;4842494;29;20197;-82
2022/11/20 07:57:58;;;;;;;51.05;22.95;;;5.90;1.00;;;;;;4961523;29;20193;-82
2022/11/20 08:04:04;;;;;;;47.90;22.25;;;5.90;1.00;;;;;;4943789;29;20297;-83
2022/11/20 08:07:25;;;;;;;54.15;23.75;;;6.00;1.00;;;;;;4941520;29;20230;-81
2022/11/20 08:10:33;;;;;;;;;;;;;;;;;;;;;
2022/11/20 08:16:55;;;;;;;47.47;21.65;;;6.10;1.00;;;;;;5012549;28;20215;-83
2022/11/20 08:19:47;;;;;;;45.28;24.10;;;6.10;1.00;;;;;;4955623;29;20256;-83
2022/11/20 08:23:05;;;;;;;;;;;;;;;;;;;;;
2022/11/20 08:29:19;;;;;;;45.60;22.58;;;6.70;99.90;;;;;;4880996;29;20202;-82
2022/11/20 08:35:27;;;;;;;41.88;22.90;;;6.90;99.90;;;;;;4932975;29;20191;-83
2022/11/20 08:45:36;;;;;;;41.50;21.48;;;6.60;99.90;;;;;;4966656;29;20209;-83
2022/11/20 08:58:45;;;;;;;;;;;;;;;;;;;;;
2022/11/20 09:23:12;;;;;;;33.37;19.30;;;8.80;1.00;;;;;;4956346;28;20852;-84
2022/11/20 09:25:59;;;;;;;35.17;18.60;;;9.00;1.00;;;;;;4886874;29;20482;-85
2022/11/20 09:50:35;;;;;;;31.47;18.57;;;8.10;99.90;;;;;;4892005;29;20185;-85
2022/11/20 10:14:59;;;;;;;27.77;16.33;;;8.10;99.90;;;;;;4931406;29;20202;-85
2022/11/20 10:43:42;;;;;;;;;;;;;;;;;;;;;
2022/11/20 10:50:36;;;;;;;30.05;18.48;;;8.00;99.90;;;;;;4930888;28;20497;-84
2022/11/20 11:42:31;;;;;;;35.38;26.20;;;8.60;99.90;;;;;;6349532;22;20340;-82
2022/11/20 11:49:19;;;;;;;32.30;21.40;;;8.30;99.90;;;;;;6348342;22;20227;-87
2022/11/20 11:52:33;;;;;;;31.45;20.73;;;8.10;99.90;;;;;;6164937;23;20609;-87
2022/11/20 11:59:31;;;;;;;37.72;20.70;;;7.90;1.00;;;;;;6348326;22;20572;-84
2022/11/20 12:02:04;;;;;;;37.28;20.85;;;7.80;48.10;;;;;;6251796;22;20194;-84
2022/11/20 12:04:52;;;;;;;36.58;20.48;;;7.80;99.90;;;;;;6350871;22;20134;-85
2022/11/20 12:07:27;;;;;;;34.85;21.52;;;7.80;99.90;;;;;;6327195;22;20183;-85
2022/11/20 12:09:56;;;;;;;33.42;20.90;;;7.70;99.90;;;;;;6352907;22;20134;-85
2022/11/20 12:12:54;;;;;;;33.47;19.48;;;7.80;99.90;;;;;;6326372;22;20243;-85
2022/11/20 12:15:54;;;;;;;31.90;20.98;;;7.80;99.90;;;;;;6278622;22;20157;-84
2022/11/20 12:18:23;;;;;;;42.80;27.55;;;8.00;99.90;;;;;;6322990;22;20158;-84
2022/11/20 12:21:03;;;;;;;33.72;21.58;;;7.90;1.00;;;;;;6322384;22;20150;-84
2022/11/20 12:24:06;;;;;;;;;;;;;;;;;;;;;
2022/11/20 12:26:56;;;;;;;36.45;21.15;;;7.80;1.00;;;;;;6282767;22;20189;-83
2022/11/20 12:29:39;;;;;;;35.90;20.95;;;7.80;99.90;;;;;;6346498;22;20479;-83
2022/11/20 12:32:43;;;;;;;37.90;23.45;;;7.80;99.90;;;;;;6341528;22;20249;-83
2022/11/20 12:35:44;;;;;;;34.15;20.95;;;7.70;1.00;;;;;;6342084;22;20153;-84
2022/11/20 12:38:30;;;;;;;36.88;22.02;;;7.60;1.00;;;;;;6344751;22;20188;-84
2022/11/20 12:45:08;;;;;;;38.90;22.95;;;7.70;80.10;;;;;;6344142;22;20183;-84
2022/11/20 12:47:18;;;;;;;34.85;21.75;;;7.70;99.90;;;;;;6341845;22;20204;-82
2022/11/20 12:50:12;;;;;;;41.25;24.25;;;7.70;99.90;;;;;;6316007;22;20201;-82
2022/11/20 12:52:41;;;;;;;41.88;23.83;;;7.70;99.90;;;;;;6273587;22;20189;-83
2022/11/20 12:55:42;;;;;;;38.70;24.52;;;7.60;99.90;;;;;;6344636;22;20182;-83
2022/11/20 12:58:31;;;;;;;40.38;21.48;;;7.60;1.00;;;;;;6315584;22;20158;-84
2022/11/20 13:01:39;;;;;;;35.83;20.40;;;7.70;1.00;;;;;;6345797;22;20215;-83
2022/11/20 13:04:05;;;;;;;39.55;22.80;;;7.80;1.00;;;;;;6345145;22;20186;-84
2022/11/20 13:06:30;;;;;;;37.77;21.50;;;7.90;99.90;;;;;;6345480;22;20528;-84
2022/11/20 13:08:56;;;;;;;38.13;22.17;;;8.00;99.90;;;;;;6345386;22;20385;-85
2022/11/20 13:11:41;;;;;;;45.00;23.00;;;8.10;82.60;;;;;;6347116;22;20151;-84
2022/11/20 13:14:52;;;;;;;40.92;23.52;;;8.20;99.90;;;;;;6345322;22;20365;-84
2022/11/20 13:17:33;;;;;;;35.08;19.70;;;8.20;99.90;;;;;;6346899;22;20151;-85
2022/11/20 13:19:59;;;;;;;36.60;21.67;;;8.20;99.90;;;;;;6342705;22;20148;-85
2022/11/20 13:22:46;;;;;;;34.53;20.50;;;8.20;99.90;;;;;;6318408;22;20163;-85
2022/11/20 13:25:35;;;;;;;37.00;20.58;;;8.10;99.90;;;;;;6318042;22;20151;-84
2022/11/20 13:28:24;;;;;;;34.60;19.50;;;8.00;1.00;;;;;;6346135;22;20258;-85
2022/11/20 13:30:54;;;;;;;37.10;19.55;;;8.00;1.00;;;;;;6327843;22;20155;-85
2022/11/20 13:33:35;;;;;;;35.03;19.70;;;8.10;1.00;;;;;;6359417;22;20167;-85
2022/11/20 13:36:07;;;;;;;34.83;19.15;;;8.10;1.00;;;;;;6347709;22;20756;-83
2022/11/20 13:38:46;;;;;;;37.20;20.97;;;8.20;1.00;;;;;;6343798;22;20139;-84
2022/11/20 13:41:28;;;;;;;31.30;17.70;;;8.20;1.00;;;;;;6344220;22;20373;-84
2022/11/20 13:43:57;;;;;;;30.85;21.20;;;8.20;1.00;;;;;;6345550;22;20186;-84
2022/11/20 13:46:24;;;;;;;34.85;21.08;;;8.20;1.00;;;;;;6349593;22;20155;-84
2022/11/20 13:48:53;;;;;;;92.40;56.05;;;8.20;99.90;;;;;;6345446;22;20707;-84
2022/11/20 13:51:45;;;;;;;37.13;23.88;;;8.20;99.90;;;;;;6345565;22;20155;-84
2022/11/20 13:54:43;;;;;;;35.55;22.40;;;8.20;1.00;;;;;;6343890;22;20162;-84
2022/11/20 13:57:31;;;;;;;42.10;23.27;;;8.20;1.00;;;;;;6316353;22;20537;-86
2022/11/20 14:00:08;;;;;;;34.58;20.67;;;8.20;1.00;;;;;;6343788;22;20151;-84
2022/11/20 14:02:33;;;;;;;34.10;19.70;;;8.20;1.00;;;;;;6316286;22;20273;-84
2022/11/20 14:05:01;;;;;;;28.30;17.50;;;8.10;99.90;;;;;;6344136;22;20150;-84
2022/11/20 14:07:39;;;;;;;28.00;17.80;;;8.10;99.90;;;;;;6344091;22;20167;-84
2022/11/20 14:10:05;;;;;;;35.47;19.33;;;8.10;99.90;;;;;;6341626;22;20385;-84
2022/11/20 14:12:33;;;;;;;29.50;18.70;;;8.00;1.00;;;;;;6343748;22;20163;-83
2022/11/20 14:14:59;;;;;;;27.95;19.50;;;7.90;99.90;;;;;;6315711;22;20184;-84
2022/11/20 14:17:33;;;;;;;30.50;19.23;;;7.90;99.90;;;;;;6345650;22;20484;-83
2022/11/20 14:20:06;;;;;;;31.83;20.52;;;7.90;99.90;;;;;;6344673;22;20158;-84
2022/11/20 14:22:31;;;;;;;32.40;19.83;;;8.00;99.90;;;;;;6345074;22;20166;-86
2022/11/20 14:25:22;;;;;;;28.97;19.70;;;8.00;99.90;;;;;;6346040;22;20243;-84
2022/11/20 14:27:52;;;;;;;29.80;18.17;;;7.90;99.90;;;;;;6344519;22;20405;-83
2022/11/20 14:30:21;;;;;;;25.52;16.42;;;7.90;99.90;;;;;;6317322;22;20159;-85
2022/11/20 14:32:48;;;;;;;30.23;18.27;;;7.90;1.00;;;;;;6341077;22;20667;-82
2022/11/20 14:35:26;;;;;;;26.90;19.38;;;7.90;1.00;;;;;;6340644;22;20635;-84
2022/11/20 14:37:52;;;;;;;29.27;18.60;;;7.80;1.00;;;;;;6312545;22;20604;-84
2022/11/20 14:40:35;;;;;;;33.83;20.75;;;7.80;72.10;;;;;;6338896;22;20147;-84
2022/11/20 14:43:04;;;;;;;33.70;20.63;;;7.70;99.90;;;;;;6337702;22;20173;-84
2022/11/20 14:45:30;;;;;;;56.65;38.63;;;7.60;1.00;;;;;;6341464;22;20157;-85
2022/11/20 14:47:57;;;;;;;41.63;28.93;;;7.60;99.90;;;;;;6315398;22;20175;-83
2022/11/20 14:50:28;;;;;;;74.68;49.83;;;7.50;1.00;;;;;;6341543;22;20177;-83
2022/11/20 14:52:55;;;;;;;45.95;23.95;;;7.50;99.90;;;;;;6343326;22;20166;-84
2022/11/20 14:55:37;;;;;;;52.25;32.13;;;7.40;1.00;;;;;;6344211;22;20147;-85
2022/11/20 14:58:20;;;;;;;52.05;26.63;;;7.40;35.80;;;;;;6315918;22;20628;-84
2022/11/20 15:00:59;;;;;;;68.35;37.08;;;7.30;99.90;;;;;;6313348;22;20154;-86
2022/11/20 15:03:35;;;;;;;74.15;37.00;;;7.30;99.90;;;;;;6343253;22;20201;-86
2022/11/20 15:06:00;;;;;;;61.33;27.70;;;7.30;99.90;;;;;;6341123;22;20150;-85
2022/11/20 15:08:26;;;;;;;70.27;29.83;;;7.20;99.90;;;;;;6339807;22;20175;-84
2022/11/20 15:10:53;;;;;;;121.70;68.60;;;7.20;99.90;;;;;;6313456;22;20392;-84
2022/11/20 15:13:32;;;;;;;114.63;69.47;;;7.20;1.00;;;;;;6340329;22;20393;-85
2022/11/20 15:16:09;;;;;;;78.65;33.65;;;7.10;1.00;;;;;;6314769;22;20143;-85
2022/11/20 15:18:43;;;;;;;102.88;35.40;;;7.10;1.00;;;;;;6343578;22;20128;-86
2022/11/20 15:21:14;;;;;;;97.40;35.55;;;7.00;1.00;;;;;;6318815;22;20140;-86
2022/11/20 15:23:43;;;;;;;98.90;35.45;;;7.00;1.00;;;;;;6315623;22;20523;-86
2022/11/20 15:26:39;;;;;;;117.88;36.45;;;6.90;1.00;;;;;;6339600;22;20159;-84
2022/11/20 15:29:04;;;;;;;91.40;31.40;;;7.00;1.00;;;;;;6313227;22;20163;-85
2022/11/20 15:31:54;;;;;;;117.23;40.50;;;7.00;1.00;;;;;;6341395;22;20661;-86
2022/11/20 15:34:56;;;;;;;111.22;36.83;;;6.90;1.00;;;;;;6314991;22;20210;-85
2022/11/20 15:37:24;;;;;;;147.55;55.88;;;6.90;1.00;;;;;;6345531;22;20126;-85
2022/11/20 15:43:16;;;;;;;162.82;53.75;;;6.90;1.00;;;;;;6320690;22;20185;-84
2022/11/20 15:45:53;;;;;;;145.02;50.30;;;6.90;1.00;;;;;;6341563;22;20536;-83
2022/11/20 15:48:21;;;;;;;101.32;39.53;;;7.00;1.00;;;;;;6313282;22;20182;-84
2022/11/20 15:50:56;;;;;;;137.57;78.72;;;7.00;1.00;;;;;;6341692;22;20615;-84
2022/11/20 15:53:24;;;;;;;91.35;41.53;;;7.00;1.00;;;;;;6315992;22;20170;-84
2022/11/20 15:55:54;;;;;;;100.80;52.38;;;7.00;1.00;;;;;;6343867;22;20155;-84
2022/11/20 15:58:33;;;;;;;104.10;44.33;;;7.10;1.00;;;;;;6342760;22;20132;-85
2022/11/20 16:01:18;;;;;;;113.65;43.38;;;7.00;1.00;;;;;;6343052;22;20143;-83
2022/11/20 16:03:49;;;;;;;108.25;38.00;;;7.00;1.00;;;;;;6314872;22;20191;-84
2022/11/20 16:06:22;;;;;;;82.57;34.33;;;7.00;1.00;;;;;;6346021;22;20153;-84
2022/11/20 16:08:57;;;;;;;130.55;69.78;;;7.00;1.00;;;;;;6344587;22;20532;-84
2022/11/20 16:11:23;;;;;;;76.68;28.48;;;7.10;1.00;;;;;;6344356;22;20124;-84
2022/11/20 16:16:35;;;;;;;74.43;32.47;;;7.10;1.00;;;;;;6343617;22;20142;-83
2022/11/20 16:19:21;;;;;;;79.90;34.78;;;7.10;1.00;;;;;;6316148;22;20166;-85
2022/11/20 16:22:07;;;;;;;93.60;36.17;;;7.10;1.00;;;;;;6318832;22;20151;-85
2022/11/20 16:24:37;;;;;;;111.95;41.75;;;7.10;1.00;;;;;;6345824;22;20218;-85
2022/11/20 16:27:05;;;;;;;95.10;31.65;;;7.10;1.00;;;;;;6347803;22;20194;-85
2022/11/20 16:29:33;;;;;;;83.82;30.63;;;7.10;1.00;;;;;;6318125;22;20173;-84
2022/11/20 16:32:01;;;;;;;87.47;33.63;;;7.10;1.00;;;;;;6318036;22;20258;-84
2022/11/20 16:34:26;;;;;;;77.15;33.17;;;7.10;1.00;;;;;;6348440;22;20177;-86
2022/11/20 16:36:52;;;;;;;104.40;52.17;;;7.10;1.00;;;;;;6344196;22;20151;-86
2022/11/20 16:39:17;;;;;;;94.53;37.33;;;7.00;1.00;;;;;;6344240;22;20276;-86
2022/11/20 16:41:43;;;;;;;142.77;55.20;;;7.00;1.00;;;;;;6346458;22;20143;-85
2022/11/20 16:44:09;;;;;;;120.60;53.50;;;7.00;1.00;;;;;;6349424;22;20149;-86
2022/11/20 16:46:35;;;;;;;78.03;31.77;;;7.00;1.00;;;;;;6321090;22;20165;-85
2022/11/20 16:49:04;;;;;;;81.97;36.00;;;7.00;1.00;;;;;;6345480;22;20200;-86
2022/11/20 16:51:33;;;;;;;72.65;33.55;;;7.00;1.00;;;;;;6347255;22;20144;-86
2022/11/20 16:54:01;;;;;;;82.15;38.42;;;6.90;1.00;;;;;;6316124;22;20175;-87
2022/11/20 16:56:31;;;;;;;77.75;25.73;;;6.90;1.00;;;;;;6312771;22;20155;-88
2022/11/20 16:59:01;;;;;;;71.00;28.58;;;6.90;1.00;;;;;;6311667;22;20532;-88
2022/11/20 17:01:30;;;;;;;67.25;34.85;;;6.90;1.00;;;;;;6312814;22;20669;-88
2022/11/20 17:04:06;;;;;;;74.63;36.30;;;6.90;1.00;;;;;;6312389;22;20186;-88
2022/11/20 17:06:44;;;;;;;56.33;29.55;;;7.00;1.00;;;;;;6362597;22;20149;-90
2022/11/20 17:09:21;;;;;;;53.72;31.08;;;7.00;1.00;;;;;;6340429;22;20146;-89
2022/11/20 17:12:10;;;;;;;65.13;39.05;;;7.10;1.00;;;;;;6350145;22;20138;-87
2022/11/20 17:15:05;;;;;;;38.70;18.85;;;7.10;1.00;;;;;;6288522;22;20213;-87
2022/11/20 17:17:56;;;;;;;34.97;15.30;;;7.10;1.00;;;;;;6294006;22;20151;-87
2022/11/20 17:21:06;;;;;;;28.58;13.95;;;7.10;1.00;;;;;;6293354;22;20830;-87
2022/11/20 17:24:33;;;;;;;20.23;11.80;;;7.20;1.00;;;;;;6310639;22;20243;-87
2022/11/20 17:30:42;;;;;;;15.95;10.10;;;7.20;1.00;;;;;;6316804;22;20216;-87
2022/11/20 17:33:27;;;;;;;26.45;11.20;;;7.30;1.00;;;;;;6334513;22;20228;-86
2022/11/20 17:36:20;;;;;;;16.67;10.18;;;7.30;1.00;;;;;;6310825;22;20605;-88
2022/11/20 17:38:48;;;;;;;15.00;9.43;;;7.30;1.00;;;;;;6338017;22;20152;-87
2022/11/20 17:44:30;;;;;;;16.73;10.05;;;7.40;1.00;;;;;;6316683;22;20186;-89
2022/11/20 17:47:03;;;;;;;17.27;11.15;;;7.40;1.00;;;;;;6339334;22;20159;-84
2022/11/20 17:49:29;;;;;;;36.63;15.45;;;7.50;1.00;;;;;;6339310;22;20146;-86
2022/11/20 17:51:57;;;;;;;30.20;14.00;;;7.50;1.00;;;;;;6340615;22;20543;-86
2022/11/20 17:54:42;;;;;;;24.25;13.63;;;7.60;1.00;;;;;;6341015;22;20218;-85
2022/11/20 18:00:05;;;;;;;28.55;16.83;;;7.70;1.00;;;;;;6342532;22;20146;-85
2022/11/20 18:02:54;;;;;;;32.70;16.75;;;7.80;1.00;;;;;;6340067;22;20631;-85
2022/11/20 18:05:19;;;;;;;29.33;17.33;;;7.80;1.00;;;;;;6340670;22;20132;-85
2022/11/20 18:07:45;;;;;;;26.30;16.37;;;7.80;1.00;;;;;;6314508;22;20166;-85
2022/11/20 18:10:13;;;;;;;34.27;17.57;;;7.90;1.00;;;;;;6313760;22;20185;-84
2022/11/20 18:12:43;;;;;;;35.58;16.90;;;7.90;1.10;;;;;;6341495;22;20177;-85
2022/11/20 18:15:09;;;;;;;36.58;18.48;;;8.00;1.40;;;;;;6317090;22;20139;-85
2022/11/20 18:17:39;;;;;;;42.30;18.40;;;8.00;1.40;;;;;;6346290;22;20214;-85
2022/11/20 18:20:15;;;;;;;;;;;;;;;;;;;;;
2022/11/20 18:22:43;;;;;;;32.92;17.15;;;8.10;1.00;;;;;;6342972;22;20190;-83
2022/11/20 18:25:12;;;;;;;32.65;16.55;;;8.10;1.00;;;;;;6338817;22;20147;-85
2022/11/20 18:27:40;;;;;;;37.25;16.02;;;8.10;1.00;;;;;;6342657;22;20170;-86
2022/11/20 18:30:09;;;;;;;38.40;16.98;;;8.10;1.00;;;;;;6343800;22;20146;-85
2022/11/20 18:32:55;;;;;;;30.00;15.85;;;8.10;1.00;;;;;;6344351;22;20225;-85
2022/11/20 18:35:29;;;;;;;39.72;15.50;;;8.20;1.00;;;;;;6344434;22;20134;-84
2022/11/20 18:37:55;;;;;;;32.83;15.35;;;8.20;1.00;;;;;;6314380;22;20150;-84
2022/11/20 18:40:33;;;;;;;;;;;;;;;;;;;;;
2022/11/20 18:46:34;;;;;;;;;;;;;;;;;;;;;
2022/11/20 18:49:25;;;;;;;38.13;13.93;;;8.30;1.00;;;;;;6339939;22;20250;-84
2022/11/20 18:52:13;;;;;;;34.17;16.42;;;8.30;1.00;;;;;;6340874;22;20135;-85
2022/11/20 19:00:46;;;;;;;43.75;17.90;;;8.40;1.00;;;;;;6314898;22;20162;-82
2022/11/20 19:03:14;;;;;;;37.30;14.32;;;8.40;1.00;;;;;;6316034;22;20190;-84
2022/11/20 19:06:19;;;;;;;33.35;14.25;;;8.40;1.00;;;;;;6316542;22;20201;-85